sensor_id;sensor_type;location;lat;lon;timestamp;temperature;humidity
47779;DHT22;33538;48.432;11.350;2024-01-30T00:00:25;1.90;94.30
47779;DHT22;33538;48.432;11.350;2024-01-30T00:02:54;1.90;94.20
47779;DHT22;33538;48.432;11.350;2024-01-30T00:05:20;1.90;94.00
47779;DHT22;33538;48.432;11.350;2024-01-30T00:07:47;1.80;94.20
47779;DHT22;33538;48.432;11.350;2024-01-30T00:10:14;1.80;94.20
47779;DHT22;33538;48.432;11.350;2024-01-30T00:12:41;1.80;94.20
47779;DHT22;33538;48.432;11.350;2024-01-30T00:15:08;1.80;94.20
47779;DHT22;33538;48.432;11.350;2024-01-30T00:17:35;1.80;93.90
47779;DHT22;33538;48.432;11.350;2024-01-30T00:20:04;1.70;93.70
47779;DHT22;33538;48.432;11.350;2024-01-30T00:22:31;1.70;94.30
47779;DHT22;33538;48.432;11.350;2024-01-30T00:24:58;1.70;94.00
47779;DHT22;33538;48.432;11.350;2024-01-30T00:27:25;1.70;93.70
47779;DHT22;33538;48.432;11.350;2024-01-30T00:29:52;1.70;93.90
47779;DHT22;33538;48.432;11.350;2024-01-30T00:32:19;1.70;93.90
47779;DHT22;33538;48.432;11.350;2024-01-30T00:34:46;1.70;93.90
47779;DHT22;33538;48.432;11.350;2024-01-30T00:37:14;1.70;94.00
47779;DHT22;33538;48.432;11.350;2024-01-30T00:39:41;1.60;94.10
47779;DHT22;33538;48.432;11.350;2024-01-30T00:42:08;1.60;94.10
47779;DHT22;33538;48.432;11.350;2024-01-30T00:44:35;1.50;94.20
47779;DHT22;33538;48.432;11.350;2024-01-30T00:47:02;1.50;94.10
47779;DHT22;33538;48.432;11.350;2024-01-30T00:49:28;1.60;93.80
47779;DHT22;33538;48.432;11.350;2024-01-30T00:51:55;1.60;93.80
47779;DHT22;33538;48.432;11.350;2024-01-30T00:54:24;1.50;93.60
47779;DHT22;33538;48.432;11.350;2024-01-30T00:56:50;1.40;94.20
47779;DHT22;33538;48.432;11.350;2024-01-30T00:59:17;1.50;94.30
47779;DHT22;33538;48.432;11.350;2024-01-30T01:01:44;1.50;93.50
47779;DHT22;33538;48.432;11.350;2024-01-30T01:04:11;1.50;93.60
47779;DHT22;33538;48.432;11.350;2024-01-30T01:06:38;1.50;93.20
47779;DHT22;33538;48.432;11.350;2024-01-30T01:09:05;1.50;93.40
47779;DHT22;33538;48.432;11.350;2024-01-30T01:11:33;1.50;93.50
47779;DHT22;33538;48.432;11.350;2024-01-30T01:14:00;1.30;93.50
47779;DHT22;33538;48.432;11.350;2024-01-30T01:16:27;1.30;93.60
47779;DHT22;33538;48.432;11.350;2024-01-30T01:18:53;1.40;93.90
47779;DHT22;33538;48.432;11.350;2024-01-30T01:21:20;1.20;94.10
47779;DHT22;33538;48.432;11.350;2024-01-30T01:23:47;1.30;94.50
47779;DHT22;33538;48.432;11.350;2024-01-30T01:26:14;1.40;94.30
47779;DHT22;33538;48.432;11.350;2024-01-30T01:28:42;1.20;94.60
47779;DHT22;33538;48.432;11.350;2024-01-30T01:31:09;1.30;94.10
47779;DHT22;33538;48.432;11.350;2024-01-30T01:33:36;1.40;93.80
47779;DHT22;33538;48.432;11.350;2024-01-30T01:36:03;1.40;93.80
47779;DHT22;33538;48.432;11.350;2024-01-30T01:38:30;1.30;93.60
47779;DHT22;33538;48.432;11.350;2024-01-30T01:40:57;1.30;93.60
47779;DHT22;33538;48.432;11.350;2024-01-30T01:43:24;1.40;93.50
47779;DHT22;33538;48.432;11.350;2024-01-30T01:45:52;1.30;93.30
47779;DHT22;33538;48.432;11.350;2024-01-30T01:48:19;1.40;93.30
47779;DHT22;33538;48.432;11.350;2024-01-30T01:50:46;1.40;93.00
47779;DHT22;33538;48.432;11.350;2024-01-30T01:53:15;1.40;93.10
47779;DHT22;33538;48.432;11.350;2024-01-30T01:55:42;1.30;92.90
47779;DHT22;33538;48.432;11.350;2024-01-30T01:58:09;1.30;93.20
47779;DHT22;33538;48.432;11.350;2024-01-30T02:00:37;1.20;93.40
47779;DHT22;33538;48.432;11.350;2024-01-30T02:03:05;1.20;93.30
47779;DHT22;33538;48.432;11.350;2024-01-30T02:05:33;1.10;93.30
47779;DHT22;33538;48.432;11.350;2024-01-30T02:08:00;1.10;93.40
47779;DHT22;33538;48.432;11.350;2024-01-30T02:10:28;0.90;94.50
47779;DHT22;33538;48.432;11.350;2024-01-30T02:12:54;1.00;94.80
47779;DHT22;33538;48.432;11.350;2024-01-30T02:15:21;1.00;94.60
47779;DHT22;33538;48.432;11.350;2024-01-30T02:17:48;1.00;94.00
47779;DHT22;33538;48.432;11.350;2024-01-30T02:20:16;1.10;93.50
47779;DHT22;33538;48.432;11.350;2024-01-30T02:22:45;1.10;93.30
47779;DHT22;33538;48.432;11.350;2024-01-30T02:25:12;1.10;93.30
47779;DHT22;33538;48.432;11.350;2024-01-30T02:27:39;1.00;93.40
47779;DHT22;33538;48.432;11.350;2024-01-30T02:30:07;1.10;93.60
47779;DHT22;33538;48.432;11.350;2024-01-30T02:32:34;1.00;93.60
47779;DHT22;33538;48.432;11.350;2024-01-30T02:35:00;1.10;93.50
47779;DHT22;33538;48.432;11.350;2024-01-30T02:37:28;1.00;93.30
47779;DHT22;33538;48.432;11.350;2024-01-30T02:39:56;1.00;93.50
47779;DHT22;33538;48.432;11.350;2024-01-30T02:42:23;1.00;93.30
47779;DHT22;33538;48.432;11.350;2024-01-30T02:44:49;1.00;93.40
47779;DHT22;33538;48.432;11.350;2024-01-30T02:47:16;0.90;93.50
47779;DHT22;33538;48.432;11.350;2024-01-30T02:49:43;0.90;93.50
47779;DHT22;33538;48.432;11.350;2024-01-30T02:52:10;0.90;93.60
47779;DHT22;33538;48.432;11.350;2024-01-30T02:54:37;0.90;93.80
47779;DHT22;33538;48.432;11.350;2024-01-30T02:57:05;1.00;93.50
47779;DHT22;33538;48.432;11.350;2024-01-30T02:59:32;1.00;93.20
47779;DHT22;33538;48.432;11.350;2024-01-30T03:01:59;1.10;92.90
47779;DHT22;33538;48.432;11.350;2024-01-30T03:04:25;1.10;92.80
47779;DHT22;33538;48.432;11.350;2024-01-30T03:06:52;1.00;92.90
47779;DHT22;33538;48.432;11.350;2024-01-30T03:09:19;1.00;93.20
47779;DHT22;33538;48.432;11.350;2024-01-30T03:11:46;0.90;93.20
47779;DHT22;33538;48.432;11.350;2024-01-30T03:14:14;1.00;92.90
47779;DHT22;33538;48.432;11.350;2024-01-30T03:16:41;1.00;92.80
47779;DHT22;33538;48.432;11.350;2024-01-30T03:19:08;1.00;93.00
47779;DHT22;33538;48.432;11.350;2024-01-30T03:21:35;1.00;92.90
47779;DHT22;33538;48.432;11.350;2024-01-30T03:24:02;1.00;92.60
47779;DHT22;33538;48.432;11.350;2024-01-30T03:26:29;0.90;92.90
47779;DHT22;33538;48.432;11.350;2024-01-30T03:28:55;0.90;92.90
47779;DHT22;33538;48.432;11.350;2024-01-30T03:31:23;1.00;92.80
47779;DHT22;33538;48.432;11.350;2024-01-30T03:33:51;0.90;92.70
47779;DHT22;33538;48.432;11.350;2024-01-30T03:36:17;0.90;92.70
47779;DHT22;33538;48.432;11.350;2024-01-30T03:38:44;1.00;92.70
47779;DHT22;33538;48.432;11.350;2024-01-30T03:41:11;0.90;92.60
47779;DHT22;33538;48.432;11.350;2024-01-30T03:43:38;0.90;92.60
47779;DHT22;33538;48.432;11.350;2024-01-30T03:46:05;0.80;92.90
47779;DHT22;33538;48.432;11.350;2024-01-30T03:48:33;0.80;93.00
47779;DHT22;33538;48.432;11.350;2024-01-30T03:51:00;0.70;93.20
47779;DHT22;33538;48.432;11.350;2024-01-30T03:53:26;0.80;93.10
47779;DHT22;33538;48.432;11.350;2024-01-30T03:55:53;0.80;92.80
47779;DHT22;33538;48.432;11.350;2024-01-30T03:58:20;0.80;92.70
47779;DHT22;33538;48.432;11.350;2024-01-30T04:00:47;0.80;92.70
47779;DHT22;33538;48.432;11.350;2024-01-30T04:03:14;0.80;92.50
47779;DHT22;33538;48.432;11.350;2024-01-30T04:05:42;0.80;92.50
47779;DHT22;33538;48.432;11.350;2024-01-30T04:08:09;0.80;92.60
47779;DHT22;33538;48.432;11.350;2024-01-30T04:10:36;0.70;92.80
47779;DHT22;33538;48.432;11.350;2024-01-30T04:13:03;0.70;92.90
47779;DHT22;33538;48.432;11.350;2024-01-30T04:15:30;0.80;92.80
47779;DHT22;33538;48.432;11.350;2024-01-30T04:17:57;0.80;92.70
47779;DHT22;33538;48.432;11.350;2024-01-30T04:20:24;0.80;92.80
47779;DHT22;33538;48.432;11.350;2024-01-30T04:22:52;0.80;92.60
47779;DHT22;33538;48.432;11.350;2024-01-30T04:25:19;0.80;92.40
47779;DHT22;33538;48.432;11.350;2024-01-30T04:27:46;0.80;92.60
47779;DHT22;33538;48.432;11.350;2024-01-30T04:30:13;0.80;92.50
47779;DHT22;33538;48.432;11.350;2024-01-30T04:32:40;0.70;92.40
47779;DHT22;33538;48.432;11.350;2024-01-30T04:35:07;0.70;92.50
47779;DHT22;33538;48.432;11.350;2024-01-30T04:37:37;0.70;92.60
47779;DHT22;33538;48.432;11.350;2024-01-30T04:40:07;0.70;92.40
47779;DHT22;33538;48.432;11.350;2024-01-30T04:42:34;0.70;92.40
47779;DHT22;33538;48.432;11.350;2024-01-30T04:45:01;0.60;92.50
47779;DHT22;33538;48.432;11.350;2024-01-30T04:47:27;0.60;92.70
47779;DHT22;33538;48.432;11.350;2024-01-30T04:49:54;0.60;93.30
47779;DHT22;33538;48.432;11.350;2024-01-30T04:52:21;0.60;93.00
47779;DHT22;33538;48.432;11.350;2024-01-30T04:54:48;0.60;92.80
47779;DHT22;33538;48.432;11.350;2024-01-30T04:57:16;0.70;93.00
47779;DHT22;33538;48.432;11.350;2024-01-30T04:59:43;0.60;92.90
47779;DHT22;33538;48.432;11.350;2024-01-30T05:02:09;0.60;92.90
47779;DHT22;33538;48.432;11.350;2024-01-30T05:04:36;0.70;92.80
47779;DHT22;33538;48.432;11.350;2024-01-30T05:07:04;0.60;92.90
47779;DHT22;33538;48.432;11.350;2024-01-30T05:09:30;0.60;92.90
47779;DHT22;33538;48.432;11.350;2024-01-30T05:11:57;0.60;92.80
47779;DHT22;33538;48.432;11.350;2024-01-30T05:14:25;0.50;92.80
47779;DHT22;33538;48.432;11.350;2024-01-30T05:16:52;0.50;93.00
47779;DHT22;33538;48.432;11.350;2024-01-30T05:19:19;0.50;93.00
47779;DHT22;33538;48.432;11.350;2024-01-30T05:21:46;0.40;93.10
47779;DHT22;33538;48.432;11.350;2024-01-30T05:24:13;0.50;93.20
47779;DHT22;33538;48.432;11.350;2024-01-30T05:26:39;0.40;93.20
47779;DHT22;33538;48.432;11.350;2024-01-30T05:29:06;0.60;92.80
47779;DHT22;33538;48.432;11.350;2024-01-30T05:31:34;0.50;92.60
47779;DHT22;33538;48.432;11.350;2024-01-30T05:34:02;0.50;92.80
47779;DHT22;33538;48.432;11.350;2024-01-30T05:36:29;0.50;92.60
47779;DHT22;33538;48.432;11.350;2024-01-30T05:38:56;0.50;92.40
47779;DHT22;33538;48.432;11.350;2024-01-30T05:41:22;0.40;92.70
47779;DHT22;33538;48.432;11.350;2024-01-30T05:43:49;0.30;92.70
47779;DHT22;33538;48.432;11.350;2024-01-30T05:46:16;0.40;92.70
47779;DHT22;33538;48.432;11.350;2024-01-30T05:48:44;0.40;92.80
47779;DHT22;33538;48.432;11.350;2024-01-30T05:51:11;0.40;93.00
47779;DHT22;33538;48.432;11.350;2024-01-30T05:53:38;0.40;93.00
47779;DHT22;33538;48.432;11.350;2024-01-30T05:56:06;0.50;92.70
47779;DHT22;33538;48.432;11.350;2024-01-30T05:58:33;0.40;92.90
47779;DHT22;33538;48.432;11.350;2024-01-30T06:00:59;0.30;92.90
47779;DHT22;33538;48.432;11.350;2024-01-30T06:03:26;0.30;93.00
47779;DHT22;33538;48.432;11.350;2024-01-30T06:05:55;0.30;93.20
47779;DHT22;33538;48.432;11.350;2024-01-30T06:08:21;0.30;93.20
47779;DHT22;33538;48.432;11.350;2024-01-30T06:10:48;0.30;93.30
47779;DHT22;33538;48.432;11.350;2024-01-30T06:13:15;0.40;92.90
47779;DHT22;33538;48.432;11.350;2024-01-30T06:15:42;0.40;92.70
47779;DHT22;33538;48.432;11.350;2024-01-30T06:18:09;0.30;93.10
47779;DHT22;33538;48.432;11.350;2024-01-30T06:20:36;0.30;93.10
47779;DHT22;33538;48.432;11.350;2024-01-30T06:23:04;0.40;93.00
47779;DHT22;33538;48.432;11.350;2024-01-30T06:25:31;0.40;92.50
47779;DHT22;33538;48.432;11.350;2024-01-30T06:27:58;0.30;92.90
47779;DHT22;33538;48.432;11.350;2024-01-30T06:30:25;0.40;92.60
47779;DHT22;33538;48.432;11.350;2024-01-30T06:32:51;0.30;93.10
47779;DHT22;33538;48.432;11.350;2024-01-30T06:35:18;0.30;92.70
47779;DHT22;33538;48.432;11.350;2024-01-30T06:37:45;0.20;93.20
47779;DHT22;33538;48.432;11.350;2024-01-30T06:40:14;0.30;93.00
47779;DHT22;33538;48.432;11.350;2024-01-30T06:42:40;0.30;92.90
47779;DHT22;33538;48.432;11.350;2024-01-30T06:45:08;0.30;92.70
47779;DHT22;33538;48.432;11.350;2024-01-30T06:47:35;0.40;92.40
47779;DHT22;33538;48.432;11.350;2024-01-30T06:50:02;0.30;92.40
47779;DHT22;33538;48.432;11.350;2024-01-30T06:52:29;0.30;92.50
47779;DHT22;33538;48.432;11.350;2024-01-30T06:54:56;0.20;93.10
47779;DHT22;33538;48.432;11.350;2024-01-30T06:57:24;0.30;93.00
47779;DHT22;33538;48.432;11.350;2024-01-30T06:59:51;0.20;93.10
47779;DHT22;33538;48.432;11.350;2024-01-30T07:02:18;0.20;93.40
47779;DHT22;33538;48.432;11.350;2024-01-30T07:04:44;0.20;93.30
47779;DHT22;33538;48.432;11.350;2024-01-30T07:07:13;0.20;93.30
47779;DHT22;33538;48.432;11.350;2024-01-30T07:09:40;0.20;93.20
47779;DHT22;33538;48.432;11.350;2024-01-30T07:12:07;0.20;93.40
47779;DHT22;33538;48.432;11.350;2024-01-30T07:14:35;0.20;93.20
47779;DHT22;33538;48.432;11.350;2024-01-30T07:17:02;0.30;93.10
47779;DHT22;33538;48.432;11.350;2024-01-30T07:19:29;0.20;93.30
47779;DHT22;33538;48.432;11.350;2024-01-30T07:21:56;0.20;93.10
47779;DHT22;33538;48.432;11.350;2024-01-30T07:24:23;0.30;93.10
47779;DHT22;33538;48.432;11.350;2024-01-30T07:26:50;0.10;93.50
47779;DHT22;33538;48.432;11.350;2024-01-30T07:29:17;0.20;93.50
47779;DHT22;33538;48.432;11.350;2024-01-30T07:31:45;0.20;94.00
47779;DHT22;33538;48.432;11.350;2024-01-30T07:34:12;0.30;93.70
47779;DHT22;33538;48.432;11.350;2024-01-30T07:36:39;0.30;93.70
47779;DHT22;33538;48.432;11.350;2024-01-30T07:39:06;0.30;93.60
47779;DHT22;33538;48.432;11.350;2024-01-30T07:41:32;0.30;93.70
47779;DHT22;33538;48.432;11.350;2024-01-30T07:43:59;0.40;93.80
47779;DHT22;33538;48.432;11.350;2024-01-30T07:46:26;0.40;94.00
47779;DHT22;33538;48.432;11.350;2024-01-30T07:48:54;0.40;94.00
47779;DHT22;33538;48.432;11.350;2024-01-30T07:51:21;0.40;94.10
47779;DHT22;33538;48.432;11.350;2024-01-30T07:53:48;0.50;93.70
47779;DHT22;33538;48.432;11.350;2024-01-30T07:56:15;0.50;94.00
47779;DHT22;33538;48.432;11.350;2024-01-30T07:58:42;0.60;94.00
47779;DHT22;33538;48.432;11.350;2024-01-30T08:01:09;0.50;94.40
47779;DHT22;33538;48.432;11.350;2024-01-30T08:03:37;0.50;94.90
47779;DHT22;33538;48.432;11.350;2024-01-30T08:06:06;0.60;95.20
47779;DHT22;33538;48.432;11.350;2024-01-30T08:08:33;0.60;95.40
47779;DHT22;33538;48.432;11.350;2024-01-30T08:10:59;0.60;95.70
47779;DHT22;33538;48.432;11.350;2024-01-30T08:13:26;0.60;96.10
47779;DHT22;33538;48.432;11.350;2024-01-30T08:15:54;0.60;96.50
47779;DHT22;33538;48.432;11.350;2024-01-30T08:18:20;0.60;96.60
47779;DHT22;33538;48.432;11.350;2024-01-30T08:23:46;0.70;95.80
47779;DHT22;33538;48.432;11.350;2024-01-30T08:26:12;0.90;96.00
47779;DHT22;33538;48.432;11.350;2024-01-30T08:28:39;0.90;95.10
47779;DHT22;33538;48.432;11.350;2024-01-30T08:31:06;0.90;94.30
47779;DHT22;33538;48.432;11.350;2024-01-30T08:33:33;0.90;93.90
47779;DHT22;33538;48.432;11.350;2024-01-30T08:36:00;1.00;92.60
47779;DHT22;33538;48.432;11.350;2024-01-30T08:38:26;1.10;92.20
47779;DHT22;33538;48.432;11.350;2024-01-30T08:40:56;1.10;92.00
47779;DHT22;33538;48.432;11.350;2024-01-30T08:43:22;1.20;91.80
47779;DHT22;33538;48.432;11.350;2024-01-30T08:45:49;1.20;91.80
47779;DHT22;33538;48.432;11.350;2024-01-30T08:48:16;1.20;91.70
47779;DHT22;33538;48.432;11.350;2024-01-30T08:50:43;1.20;91.60
47779;DHT22;33538;48.432;11.350;2024-01-30T08:53:10;1.20;91.40
47779;DHT22;33538;48.432;11.350;2024-01-30T08:55:37;1.20;91.30
47779;DHT22;33538;48.432;11.350;2024-01-30T08:58:05;1.20;91.60
47779;DHT22;33538;48.432;11.350;2024-01-30T09:00:32;1.30;91.20
47779;DHT22;33538;48.432;11.350;2024-01-30T09:02:59;1.30;91.10
47779;DHT22;33538;48.432;11.350;2024-01-30T09:05:26;1.30;91.10
47779;DHT22;33538;48.432;11.350;2024-01-30T09:07:53;1.40;91.00
47779;DHT22;33538;48.432;11.350;2024-01-30T09:10:19;1.40;91.00
47779;DHT22;33538;48.432;11.350;2024-01-30T09:12:47;1.40;90.90
47779;DHT22;33538;48.432;11.350;2024-01-30T09:15:15;1.40;90.90
47779;DHT22;33538;48.432;11.350;2024-01-30T09:17:42;1.50;90.90
47779;DHT22;33538;48.432;11.350;2024-01-30T09:20:10;1.50;90.80
47779;DHT22;33538;48.432;11.350;2024-01-30T09:22:37;1.50;90.80
47779;DHT22;33538;48.432;11.350;2024-01-30T09:25:05;1.50;90.80
47779;DHT22;33538;48.432;11.350;2024-01-30T09:27:31;1.60;90.80
47779;DHT22;33538;48.432;11.350;2024-01-30T09:29:58;1.60;90.80
47779;DHT22;33538;48.432;11.350;2024-01-30T09:32:26;1.60;90.70
47779;DHT22;33538;48.432;11.350;2024-01-30T09:34:53;1.60;90.70
47779;DHT22;33538;48.432;11.350;2024-01-30T09:37:20;1.70;90.70
47779;DHT22;33538;48.432;11.350;2024-01-30T09:39:49;1.70;90.70
47779;DHT22;33538;48.432;11.350;2024-01-30T09:42:21;1.70;90.70
47779;DHT22;33538;48.432;11.350;2024-01-30T09:44:53;1.70;90.70
47779;DHT22;33538;48.432;11.350;2024-01-30T09:47:20;1.80;90.60
47779;DHT22;33538;48.432;11.350;2024-01-30T09:49:49;1.80;90.60
47779;DHT22;33538;48.432;11.350;2024-01-30T09:52:17;1.80;90.70
47779;DHT22;33538;48.432;11.350;2024-01-30T09:54:45;1.80;90.70
47779;DHT22;33538;48.432;11.350;2024-01-30T09:57:12;1.90;90.70
47779;DHT22;33538;48.432;11.350;2024-01-30T09:59:39;1.90;90.80
47779;DHT22;33538;48.432;11.350;2024-01-30T10:02:07;1.90;90.80
47779;DHT22;33538;48.432;11.350;2024-01-30T10:04:34;1.90;90.90
47779;DHT22;33538;48.432;11.350;2024-01-30T10:07:03;1.90;90.80
47779;DHT22;33538;48.432;11.350;2024-01-30T10:09:32;2.00;90.90
47779;DHT22;33538;48.432;11.350;2024-01-30T10:11:59;2.00;90.90
47779;DHT22;33538;48.432;11.350;2024-01-30T10:14:25;2.00;91.00
47779;DHT22;33538;48.432;11.350;2024-01-30T10:16:52;2.00;91.00
47779;DHT22;33538;48.432;11.350;2024-01-30T10:19:19;2.10;91.10
47779;DHT22;33538;48.432;11.350;2024-01-30T10:21:46;2.10;91.20
47779;DHT22;33538;48.432;11.350;2024-01-30T10:24:15;2.10;91.20
47779;DHT22;33538;48.432;11.350;2024-01-30T10:26:43;2.10;91.30
47779;DHT22;33538;48.432;11.350;2024-01-30T10:29:10;2.20;91.40
47779;DHT22;33538;48.432;11.350;2024-01-30T10:31:37;2.20;91.50
47779;DHT22;33538;48.432;11.350;2024-01-30T10:34:04;2.20;91.60
47779;DHT22;33538;48.432;11.350;2024-01-30T10:36:46;2.20;91.60
47779;DHT22;33538;48.432;11.350;2024-01-30T10:39:16;2.30;91.80
47779;DHT22;33538;48.432;11.350;2024-01-30T10:41:44;2.30;91.90
47779;DHT22;33538;48.432;11.350;2024-01-30T10:44:11;2.30;91.90
47779;DHT22;33538;48.432;11.350;2024-01-30T10:46:38;2.30;92.10
47779;DHT22;33538;48.432;11.350;2024-01-30T10:49:05;2.40;92.30
47779;DHT22;33538;48.432;11.350;2024-01-30T10:51:34;2.40;92.50
47779;DHT22;33538;48.432;11.350;2024-01-30T10:54:02;2.40;92.60
47779;DHT22;33538;48.432;11.350;2024-01-30T10:56:32;2.40;92.70
47779;DHT22;33538;48.432;11.350;2024-01-30T10:58:59;2.40;93.00
47779;DHT22;33538;48.432;11.350;2024-01-30T11:01:28;2.50;93.00
47779;DHT22;33538;48.432;11.350;2024-01-30T11:03:55;2.50;93.10
47779;DHT22;33538;48.432;11.350;2024-01-30T11:06:23;2.50;93.30
47779;DHT22;33538;48.432;11.350;2024-01-30T11:09:00;2.50;93.50
47779;DHT22;33538;48.432;11.350;2024-01-30T11:11:27;2.50;93.80
47779;DHT22;33538;48.432;11.350;2024-01-30T11:13:55;2.50;93.80
47779;DHT22;33538;48.432;11.350;2024-01-30T11:16:22;2.60;94.00
47779;DHT22;33538;48.432;11.350;2024-01-30T11:18:50;2.60;94.10
47779;DHT22;33538;48.432;11.350;2024-01-30T11:21:17;2.60;94.30
47779;DHT22;33538;48.432;11.350;2024-01-30T11:23:44;2.60;94.50
47779;DHT22;33538;48.432;11.350;2024-01-30T11:26:11;2.70;94.50
47779;DHT22;33538;48.432;11.350;2024-01-30T11:28:38;2.70;94.60
47779;DHT22;33538;48.432;11.350;2024-01-30T11:31:07;2.70;94.70
47779;DHT22;33538;48.432;11.350;2024-01-30T11:33:34;2.70;94.70
47779;DHT22;33538;48.432;11.350;2024-01-30T11:36:01;2.80;94.90
47779;DHT22;33538;48.432;11.350;2024-01-30T11:38:29;2.80;94.80
47779;DHT22;33538;48.432;11.350;2024-01-30T11:40:56;2.80;95.10
47779;DHT22;33538;48.432;11.350;2024-01-30T11:43:23;2.90;95.00
47779;DHT22;33538;48.432;11.350;2024-01-30T11:45:50;2.90;95.10
47779;DHT22;33538;48.432;11.350;2024-01-30T11:48:19;2.90;95.30
47779;DHT22;33538;48.432;11.350;2024-01-30T11:50:46;2.90;95.30
47779;DHT22;33538;48.432;11.350;2024-01-30T11:53:13;3.00;95.50
47779;DHT22;33538;48.432;11.350;2024-01-30T11:55:40;3.00;95.70
47779;DHT22;33538;48.432;11.350;2024-01-30T11:58:07;3.00;95.70
47779;DHT22;33538;48.432;11.350;2024-01-30T12:00:34;3.10;95.80
47779;DHT22;33538;48.432;11.350;2024-01-30T12:03:02;3.10;96.00
47779;DHT22;33538;48.432;11.350;2024-01-30T12:05:31;3.10;96.00
47779;DHT22;33538;48.432;11.350;2024-01-30T12:07:58;3.20;96.30
47779;DHT22;33538;48.432;11.350;2024-01-30T12:10:25;3.20;96.30
47779;DHT22;33538;48.432;11.350;2024-01-30T12:12:52;3.20;96.60
47779;DHT22;33538;48.432;11.350;2024-01-30T12:15:22;3.20;96.60
47779;DHT22;33538;48.432;11.350;2024-01-30T12:17:49;3.30;96.80
47779;DHT22;33538;48.432;11.350;2024-01-30T12:20:18;3.30;97.30
47779;DHT22;33538;48.432;11.350;2024-01-30T12:22:48;3.30;97.40
47779;DHT22;33538;48.432;11.350;2024-01-30T12:25:16;3.30;97.30
47779;DHT22;33538;48.432;11.350;2024-01-30T12:27:44;3.40;97.80
47779;DHT22;33538;48.432;11.350;2024-01-30T12:30:13;3.40;97.80
47779;DHT22;33538;48.432;11.350;2024-01-30T12:32:41;3.40;98.20
47779;DHT22;33538;48.432;11.350;2024-01-30T12:35:10;3.40;98.40
47779;DHT22;33538;48.432;11.350;2024-01-30T12:37:37;3.40;98.50
47779;DHT22;33538;48.432;11.350;2024-01-30T12:40:07;3.40;98.80
47779;DHT22;33538;48.432;11.350;2024-01-30T12:42:34;3.50;99.30
47779;DHT22;33538;48.432;11.350;2024-01-30T12:45:02;3.50;99.50
47779;DHT22;33538;48.432;11.350;2024-01-30T12:47:29;3.40;99.80
47779;DHT22;33538;48.432;11.350;2024-01-30T12:49:56;3.40;99.50
47779;DHT22;33538;48.432;11.350;2024-01-30T12:52:24;3.50;99.90
47779;DHT22;33538;48.432;11.350;2024-01-30T12:54:51;3.50;99.90
47779;DHT22;33538;48.432;11.350;2024-01-30T12:57:20;3.50;99.90
47779;DHT22;33538;48.432;11.350;2024-01-30T12:59:47;3.50;99.90
47779;DHT22;33538;48.432;11.350;2024-01-30T13:02:15;3.50;99.90
47779;DHT22;33538;48.432;11.350;2024-01-30T13:04:42;3.50;99.90
47779;DHT22;33538;48.432;11.350;2024-01-30T13:07:12;3.50;99.90
47779;DHT22;33538;48.432;11.350;2024-01-30T13:09:39;3.60;99.90
47779;DHT22;33538;48.432;11.350;2024-01-30T13:12:06;3.50;99.90
47779;DHT22;33538;48.432;11.350;2024-01-30T13:14:34;3.60;99.90
47779;DHT22;33538;48.432;11.350;2024-01-30T13:17:01;3.60;99.90
47779;DHT22;33538;48.432;11.350;2024-01-30T13:19:28;3.60;99.90
47779;DHT22;33538;48.432;11.350;2024-01-30T13:21:55;3.60;99.90
47779;DHT22;33538;48.432;11.350;2024-01-30T13:24:22;3.60;99.90
47779;DHT22;33538;48.432;11.350;2024-01-30T13:26:48;3.60;99.90
47779;DHT22;33538;48.432;11.350;2024-01-30T13:29:15;3.60;99.90
47779;DHT22;33538;48.432;11.350;2024-01-30T13:31:43;3.60;99.90
47779;DHT22;33538;48.432;11.350;2024-01-30T13:34:10;3.70;99.90
47779;DHT22;33538;48.432;11.350;2024-01-30T13:36:38;3.70;99.90
47779;DHT22;33538;48.432;11.350;2024-01-30T13:39:04;3.70;99.90
47779;DHT22;33538;48.432;11.350;2024-01-30T13:41:31;3.70;99.90
47779;DHT22;33538;48.432;11.350;2024-01-30T13:43:58;3.70;99.90
47779;DHT22;33538;48.432;11.350;2024-01-30T13:46:25;3.70;99.90
47779;DHT22;33538;48.432;11.350;2024-01-30T13:48:54;3.70;99.90
47779;DHT22;33538;48.432;11.350;2024-01-30T13:51:21;3.70;99.90
47779;DHT22;33538;48.432;11.350;2024-01-30T13:53:47;3.70;99.90
47779;DHT22;33538;48.432;11.350;2024-01-30T13:56:14;3.70;99.90
47779;DHT22;33538;48.432;11.350;2024-01-30T13:58:41;3.70;99.90
47779;DHT22;33538;48.432;11.350;2024-01-30T14:01:08;3.70;99.90
47779;DHT22;33538;48.432;11.350;2024-01-30T14:03:35;3.80;99.90
47779;DHT22;33538;48.432;11.350;2024-01-30T14:06:03;3.80;99.90
47779;DHT22;33538;48.432;11.350;2024-01-30T14:08:31;3.80;99.90
47779;DHT22;33538;48.432;11.350;2024-01-30T14:10:58;3.80;99.90
47779;DHT22;33538;48.432;11.350;2024-01-30T14:13:25;3.80;99.90
47779;DHT22;33538;48.432;11.350;2024-01-30T14:15:53;3.80;99.90
47779;DHT22;33538;48.432;11.350;2024-01-30T14:18:20;3.80;99.90
47779;DHT22;33538;48.432;11.350;2024-01-30T14:20:47;3.90;99.90
47779;DHT22;33538;48.432;11.350;2024-01-30T14:23:17;3.90;99.90
47779;DHT22;33538;48.432;11.350;2024-01-30T14:25:44;3.90;99.90
47779;DHT22;33538;48.432;11.350;2024-01-30T14:28:11;3.90;99.90
47779;DHT22;33538;48.432;11.350;2024-01-30T14:30:38;3.90;99.90
47779;DHT22;33538;48.432;11.350;2024-01-30T14:33:05;3.90;99.90
47779;DHT22;33538;48.432;11.350;2024-01-30T14:35:32;3.90;99.90
47779;DHT22;33538;48.432;11.350;2024-01-30T14:37:58;3.90;99.90
47779;DHT22;33538;48.432;11.350;2024-01-30T14:40:27;4.00;99.90
47779;DHT22;33538;48.432;11.350;2024-01-30T14:42:53;3.90;99.90
47779;DHT22;33538;48.432;11.350;2024-01-30T14:45:20;4.00;99.90
47779;DHT22;33538;48.432;11.350;2024-01-30T14:47:47;4.00;99.90
47779;DHT22;33538;48.432;11.350;2024-01-30T14:50:14;4.00;99.90
47779;DHT22;33538;48.432;11.350;2024-01-30T14:52:41;4.00;99.90
47779;DHT22;33538;48.432;11.350;2024-01-30T14:55:08;4.00;99.90
47779;DHT22;33538;48.432;11.350;2024-01-30T14:57:36;4.00;99.90
47779;DHT22;33538;48.432;11.350;2024-01-30T15:00:04;4.00;99.90
47779;DHT22;33538;48.432;11.350;2024-01-30T15:02:31;4.00;99.90
47779;DHT22;33538;48.432;11.350;2024-01-30T15:04:58;4.00;99.90
47779;DHT22;33538;48.432;11.350;2024-01-30T15:07:25;4.10;99.90
47779;DHT22;33538;48.432;11.350;2024-01-30T15:10:05;4.10;99.90
47779;DHT22;33538;48.432;11.350;2024-01-30T15:12:33;4.10;99.90
47779;DHT22;33538;48.432;11.350;2024-01-30T15:15:01;4.10;99.90
47779;DHT22;33538;48.432;11.350;2024-01-30T15:17:28;4.10;99.90
47779;DHT22;33538;48.432;11.350;2024-01-30T15:19:54;4.10;99.90
47779;DHT22;33538;48.432;11.350;2024-01-30T15:22:21;4.10;99.90
47779;DHT22;33538;48.432;11.350;2024-01-30T15:24:48;4.10;99.90
47779;DHT22;33538;48.432;11.350;2024-01-30T15:27:15;4.20;99.90
47779;DHT22;33538;48.432;11.350;2024-01-30T15:29:42;4.20;99.90
47779;DHT22;33538;48.432;11.350;2024-01-30T15:32:10;4.20;99.90